Ravenswood, Illinois
Current Conditions -  °F | °C
As of 9:51 AM on Friday 21 Nov 2014 (Local Time) from KORD Reporting Station
Clear Clear  
Wind Chill: 13°   Ceiling: Unl
Heat Index: 22°   Visibility: 10mi
Dew Point:   Wind: 8mph
Humidity: 42%   Direction: 150°SSE
Pressure: 30.45"   Gusts: NA
Location:  41.9735°N, 87.7018°W
Report Text: KORD 211551Z 15007KT 10SM CLR M06/M17 A3045 RMK AO2 SLP324 T10561167
Loading
Personal Weather Stations






























Interactive Weather Map New forecast layout! Learn more

10-Day Weather Forecast

Advertisements
Track Severe Weather on mobile